Time;durP1;ratioP1;P1;durP2;ratioP2;P2;SDS_P1;SDS_P2;PMS_P1;PMS_P2;Temp;Humidity;BMP_temperature;BMP_pressure;BME280_temperature;BME280_humidity;BME280_pressure;Samples;Min_cycle;Max_cycle;Signal;HPM_P1;HPM_P2
2021/11/06 00:04:04;;;;;;;15.38;5.55;;;7.10;99.90;;;;;;10427182;28;20056;-58
2021/11/06 00:09:06;;;;;;;15.20;5.63;;;7.10;99.90;;;;;;10432945;28;20072;-58
2021/11/06 00:14:08;;;;;;;12.80;5.15;;;7.20;99.90;;;;;;10429537;28;20091;-57
2021/11/06 00:19:10;;;;;;;12.00;5.25;;;7.20;99.90;;;;;;10425864;28;20053;-57
2021/11/06 00:24:11;;;;;;;13.45;5.68;;;7.20;99.90;;;;;;10426445;28;20111;-59
2021/11/06 00:29:13;;;;;;;13.60;6.38;;;7.10;99.90;;;;;;10406415;28;20458;-58
2021/11/06 00:34:15;;;;;;;16.60;6.45;;;7.10;99.90;;;;;;10431179;28;20052;-58
2021/11/06 00:45:04;;;;;;;14.50;5.63;;;6.90;99.90;;;;;;2452571;23;20125;-91
2021/11/06 00:50:09;;;;;;;17.42;5.90;;;6.90;99.90;;;;;;10352351;28;20045;-91
2021/11/06 00:55:11;;;;;;;14.05;6.75;;;6.80;99.90;;;;;;10324625;28;20080;-91
2021/11/06 01:00:15;;;;;;;12.43;6.00;;;6.80;99.90;;;;;;10350092;28;20137;-90
2021/11/06 01:05:17;;;;;;;18.65;6.68;;;6.80;99.90;;;;;;10268484;28;20126;-91
2021/11/06 01:10:20;;;;;;;11.57;5.90;;;6.80;99.90;;;;;;10354810;28;20057;-90
2021/11/06 01:15:29;;;;;;;19.48;7.03;;;6.90;99.90;;;;;;10367267;28;20060;-91
2021/11/06 01:20:31;;;;;;;16.45;6.95;;;6.90;99.90;;;;;;10319419;28;20632;-91
2021/11/06 01:25:32;;;;;;;15.35;6.68;;;6.90;99.90;;;;;;10340108;28;20045;-91
2021/11/06 01:30:35;;;;;;;18.98;7.28;;;6.90;99.90;;;;;;10363842;28;20081;-91
2021/11/06 01:35:36;;;;;;;15.15;5.95;;;7.00;99.90;;;;;;10364919;28;20041;-91
2021/11/06 01:40:38;;;;;;;14.48;6.40;;;7.00;99.90;;;;;;10358038;28;20069;-91
2021/11/06 01:45:41;;;;;;;16.35;6.53;;;7.00;99.90;;;;;;10381639;28;20107;-90
2021/11/06 01:50:42;;;;;;;16.30;6.88;;;7.10;99.90;;;;;;10416342;28;20730;-90
2021/11/06 01:55:47;;;;;;;15.85;6.20;;;7.10;99.90;;;;;;10400421;28;20098;-90
2021/11/06 02:00:53;;;;;;;17.00;7.03;;;7.10;99.90;;;;;;10387559;28;20095;-91
2021/11/06 02:05:55;;;;;;;18.58;7.53;;;7.20;99.90;;;;;;10390759;28;20056;-91
2021/11/06 02:11:02;;;;;;;15.45;5.72;;;7.20;99.90;;;;;;10431441;28;20092;-90
2021/11/06 02:16:04;;;;;;;16.00;6.25;;;7.20;99.90;;;;;;10401002;28;20497;-91
2021/11/06 02:21:09;;;;;;;12.50;5.85;;;7.10;99.90;;;;;;10414395;28;20403;-91
2021/11/06 02:26:12;;;;;;;23.55;10.05;;;7.00;99.90;;;;;;10401716;28;20480;-91
2021/11/06 02:31:34;;;;;;;21.98;9.02;;;6.90;99.90;;;;;;10414937;28;20067;-91
2021/11/06 02:36:36;;;;;;;14.82;6.40;;;6.80;99.90;;;;;;10399575;28;20057;-90
2021/11/06 02:41:38;;;;;;;18.05;7.53;;;6.70;99.90;;;;;;10398585;28;20053;-91
2021/11/06 02:46:41;;;;;;;17.08;7.30;;;6.60;99.90;;;;;;10397459;28;20131;-91
2021/11/06 02:51:43;;;;;;;21.52;8.15;;;6.40;99.90;;;;;;10393161;28;20065;-91
2021/11/06 02:56:45;;;;;;;16.20;6.07;;;6.30;99.90;;;;;;10421983;28;20557;-90
2021/11/06 03:01:47;;;;;;;16.35;6.75;;;6.20;99.90;;;;;;10416714;28;20080;-91
2021/11/06 03:06:49;;;;;;;14.57;6.85;;;6.10;99.90;;;;;;10414231;28;20059;-90
2021/11/06 03:11:52;;;;;;;23.92;6.38;;;6.00;99.90;;;;;;10414639;28;20081;-90
2021/11/06 03:16:54;;;;;;;14.45;6.30;;;5.80;99.90;;;;;;10402510;28;20053;-91
2021/11/06 03:21:56;;;;;;;15.32;6.28;;;5.70;99.90;;;;;;10412642;28;20045;-91
2021/11/06 03:26:58;;;;;;;12.80;5.50;;;5.60;99.90;;;;;;10414874;28;20853;-92
2021/11/06 03:32:05;;;;;;;14.93;6.32;;;5.60;99.90;;;;;;10364808;28;20072;-91
2021/11/06 03:37:07;;;;;;;16.02;6.47;;;5.50;99.90;;;;;;10417134;28;20055;-91
2021/11/06 03:42:09;;;;;;;18.02;6.47;;;5.50;99.90;;;;;;10414167;28;20067;-91
2021/11/06 03:47:11;;;;;;;16.40;6.43;;;5.40;99.90;;;;;;10417714;28;20059;-91
2021/11/06 03:52:13;;;;;;;15.82;5.15;;;5.40;99.90;;;;;;10412266;28;20060;-91
2021/11/06 03:57:15;;;;;;;17.17;6.30;;;5.30;99.90;;;;;;10394715;28;20522;-91
2021/11/06 04:02:17;;;;;;;13.95;5.63;;;5.30;99.90;;;;;;10401166;28;20131;-91
2021/11/06 04:07:19;;;;;;;22.80;7.22;;;5.20;99.90;;;;;;10421036;28;20115;-91
2021/11/06 04:12:21;;;;;;;20.85;8.80;;;5.10;99.90;;;;;;10411677;28;20055;-91
2021/11/06 04:17:23;;;;;;;22.20;7.60;;;5.10;99.90;;;;;;10423970;28;20061;-91
2021/11/06 04:22:29;;;;;;;15.57;6.30;;;5.00;99.90;;;;;;10422807;28;20056;-91
2021/11/06 04:27:31;;;;;;;16.05;6.95;;;4.90;99.90;;;;;;10406191;28;20060;-90
2021/11/06 04:32:33;;;;;;;20.05;6.75;;;4.80;99.90;;;;;;10423564;28;20161;-91
2021/11/06 04:37:35;;;;;;;15.77;6.53;;;4.80;99.90;;;;;;10421405;28;20065;-90
2021/11/06 04:42:39;;;;;;;16.80;6.32;;;4.70;99.90;;;;;;10422588;28;20053;-91
2021/11/06 04:47:41;;;;;;;18.15;6.78;;;4.60;99.90;;;;;;10404211;28;20080;-90
2021/11/06 04:52:43;;;;;;;69.55;9.15;;;4.60;99.90;;;;;;10417853;28;20053;-91
2021/11/06 04:57:45;;;;;;;108.85;10.90;;;4.60;99.90;;;;;;10396572;28;20743;-91
2021/11/06 05:02:47;;;;;;;28.40;8.73;;;4.70;99.90;;;;;;10407418;28;21122;-91
2021/11/06 05:07:50;;;;;;;127.63;11.70;;;4.80;99.90;;;;;;10422992;28;20084;-90
2021/11/06 05:12:52;;;;;;;71.45;10.70;;;4.70;99.90;;;;;;10421591;28;20572;-91
2021/11/06 05:17:54;;;;;;;113.43;12.77;;;4.80;99.90;;;;;;10402184;28;20103;-92
2021/11/06 05:22:56;;;;;;;133.48;11.57;;;4.80;99.90;;;;;;10376086;28;20053;-91
2021/11/06 05:27:58;;;;;;;80.40;10.63;;;4.80;99.90;;;;;;10398068;28;20052;-91
2021/11/06 05:33:01;;;;;;;69.72;10.48;;;4.80;99.90;;;;;;10409427;28;20135;-90
2021/11/06 05:38:03;;;;;;;36.72;8.02;;;4.70;99.90;;;;;;10399387;28;20534;-91
2021/11/06 05:43:05;;;;;;;43.67;7.07;;;4.70;99.90;;;;;;10413979;28;20110;-91
2021/11/06 05:48:07;;;;;;;32.13;6.95;;;4.70;99.90;;;;;;10421597;28;20183;-91
2021/11/06 05:53:09;;;;;;;73.35;8.98;;;4.60;99.90;;;;;;10395572;28;20055;-91
2021/11/06 05:58:11;;;;;;;124.43;10.68;;;4.60;99.90;;;;;;10417102;28;20067;-91
2021/11/06 06:03:13;;;;;;;16.30;5.97;;;4.60;99.90;;;;;;10434439;28;20053;-91
2021/11/06 06:08:15;;;;;;;23.00;7.90;;;4.60;99.90;;;;;;10422882;28;20055;-92
2021/11/06 06:13:17;;;;;;;20.33;8.00;;;4.70;99.90;;;;;;10419873;28;20041;-91
2021/11/06 06:18:19;;;;;;;25.50;8.82;;;4.80;99.90;;;;;;10411727;28;20049;-92
2021/11/06 06:23:21;;;;;;;21.00;7.30;;;4.80;99.90;;;;;;10393484;28;20052;-92
2021/11/06 06:28:23;;;;;;;17.70;6.78;;;4.90;99.90;;;;;;10397055;28;20065;-92
2021/11/06 06:33:25;;;;;;;37.92;7.95;;;5.10;99.90;;;;;;10402318;28;20130;-92
2021/11/06 06:38:27;;;;;;;68.93;9.18;;;5.10;99.90;;;;;;10396286;28;20079;-92
2021/11/06 06:43:29;;;;;;;41.58;8.30;;;5.20;99.90;;;;;;10398062;28;20067;-91
2021/11/06 06:48:31;;;;;;;37.95;9.30;;;5.30;99.90;;;;;;10366020;28;20080;-92
2021/11/06 06:53:33;;;;;;;32.22;9.27;;;5.40;99.90;;;;;;10358811;28;20057;-92
2021/11/06 06:58:35;;;;;;;41.70;9.25;;;5.50;99.90;;;;;;10391461;28;20057;-92
2021/11/06 07:03:37;;;;;;;41.60;8.75;;;5.60;99.90;;;;;;10373754;28;20593;-92
2021/11/06 07:08:40;;;;;;;29.20;9.90;;;5.70;99.90;;;;;;10303538;28;20045;-93
2021/11/06 07:13:57;;;;;;;;;;;5.80;99.90;;;;;;10363908;28;20054;-93
2021/11/06 07:19:08;;;;;;;50.22;10.98;;;6.00;99.90;;;;;;10328556;28;19929;-92
2021/11/06 07:24:24;;;;;;;51.00;9.95;;;6.00;99.90;;;;;;10359270;28;20049;-92
2021/11/06 07:29:28;;;;;;;42.60;9.48;;;6.10;99.90;;;;;;10343664;28;20076;-92
2021/11/06 07:34:31;;;;;;;144.23;16.25;;;6.10;99.90;;;;;;10359201;28;20036;-91
2021/11/06 07:39:34;;;;;;;106.10;12.40;;;6.10;99.90;;;;;;10365911;28;20045;-93
2021/11/06 07:44:38;;;;;;;89.45;12.90;;;6.00;99.90;;;;;;10341162;28;20060;-93
2021/11/06 07:49:39;;;;;;;173.35;16.02;;;5.90;99.90;;;;;;10369023;28;20067;-91
2021/11/06 07:54:41;;;;;;;166.75;17.75;;;5.90;99.90;;;;;;10373914;28;20128;-91
2021/11/06 07:59:43;;;;;;;84.45;12.18;;;6.00;99.90;;;;;;10360966;28;20111;-91
2021/11/06 08:04:45;;;;;;;85.80;10.80;;;5.90;99.90;;;;;;10375353;28;20543;-91
2021/11/06 08:09:47;;;;;;;91.53;12.07;;;6.00;99.90;;;;;;10376687;28;20060;-91
2021/11/06 08:14:49;;;;;;;74.07;11.43;;;6.00;99.90;;;;;;10361231;28;20091;-91
2021/11/06 08:19:51;;;;;;;129.10;16.38;;;6.10;99.90;;;;;;10378486;28;20571;-93
2021/11/06 08:24:53;;;;;;;76.50;12.45;;;6.00;99.90;;;;;;10366437;28;20116;-93
2021/11/06 08:29:55;;;;;;;46.67;12.48;;;6.10;99.90;;;;;;10383324;28;20524;-92
2021/11/06 08:34:57;;;;;;;62.10;13.20;;;6.10;99.90;;;;;;10368670;28;20054;-93
2021/11/06 08:39:59;;;;;;;77.85;15.55;;;6.10;99.90;;;;;;10396226;28;20054;-92
2021/11/06 08:45:03;;;;;;;70.68;16.70;;;6.10;99.90;;;;;;10360762;28;20049;-93
2021/11/06 08:50:07;;;;;;;159.80;18.38;;;6.50;99.90;;;;;;10392180;28;20061;-92
2021/11/06 08:55:10;;;;;;;115.95;19.55;;;6.30;99.90;;;;;;10437591;28;20500;-93
2021/11/06 09:00:18;;;;;;;50.03;12.02;;;6.40;99.90;;;;;;10401719;28;20102;-93
2021/11/06 09:05:21;;;;;;;49.70;11.88;;;6.50;99.90;;;;;;10392538;28;20491;-93
2021/11/06 09:10:23;;;;;;;74.40;14.88;;;6.80;99.90;;;;;;10379944;28;20503;-93
2021/11/06 09:15:25;;;;;;;57.95;14.38;;;7.00;99.90;;;;;;10400969;28;20080;-91
2021/11/06 09:20:27;;;;;;;56.60;10.45;;;7.30;99.90;;;;;;10407557;28;20080;-93
2021/11/06 09:25:29;;;;;;;33.15;9.80;;;7.10;99.90;;;;;;10391039;28;20028;-92
2021/11/06 09:30:31;;;;;;;34.60;9.55;;;7.10;99.90;;;;;;10399384;28;20037;-93
2021/11/06 09:35:33;;;;;;;33.47;10.15;;;7.20;99.90;;;;;;10415989;28;20551;-93
2021/11/06 09:40:35;;;;;;;32.38;9.00;;;7.20;99.90;;;;;;10379807;28;22064;-93
2021/11/06 09:45:43;;;;;;;35.95;10.48;;;7.00;99.90;;;;;;10401476;28;20120;-93
2021/11/06 09:50:46;;;;;;;32.35;10.77;;;6.90;99.90;;;;;;10414925;28;20053;-91
2021/11/06 09:55:50;;;;;;;37.03;11.60;;;6.90;99.90;;;;;;10382748;28;20053;-93
2021/11/06 10:07:18;;;;;;;37.72;10.95;;;7.10;99.90;;;;;;10431780;28;20423;-91
2021/11/06 10:12:20;;;;;;;41.10;12.43;;;7.30;99.90;;;;;;10406718;28;20061;-91
2021/11/06 10:17:26;;;;;;;31.25;11.43;;;7.40;99.90;;;;;;10407719;28;20442;-90
2021/11/06 10:22:30;;;;;;;37.00;13.75;;;7.40;99.90;;;;;;10383616;28;20057;-91
2021/11/06 10:27:33;;;;;;;33.85;12.27;;;7.50;99.90;;;;;;10407616;28;20080;-93
2021/11/06 10:32:40;;;;;;;34.40;11.80;;;7.70;99.90;;;;;;10392448;28;20057;-93
2021/11/06 10:37:43;;;;;;;;;;;7.70;99.90;;;;;;10415056;28;20037;-93
2021/11/06 10:42:50;;;;;;;26.98;11.13;;;7.90;99.90;;;;;;10409049;28;19929;-93
2021/11/06 10:47:59;;;;;;;30.75;12.70;;;7.90;99.90;;;;;;10416295;28;20067;-93
2021/11/06 10:53:01;;;;;;;30.42;11.05;;;7.80;99.90;;;;;;10399523;28;20144;-93
2021/11/06 10:58:17;;;;;;;33.05;12.88;;;7.90;99.90;;;;;;10396017;28;20144;-93
2021/11/06 11:03:30;;;;;;;30.55;12.38;;;8.00;99.90;;;;;;10395693;28;20072;-93
2021/11/06 11:08:45;;;;;;;28.85;12.40;;;8.20;99.90;;;;;;10409499;28;20045;-94
2021/11/06 11:13:58;;;;;;;30.45;12.18;;;8.30;99.90;;;;;;10314931;28;20366;-94
2021/11/06 11:19:12;;;;;;;29.65;12.80;;;8.40;99.90;;;;;;10406735;28;20047;-94
2021/11/06 11:24:17;;;;;;;22.05;10.52;;;8.90;99.90;;;;;;10408847;28;20044;-94
2021/11/06 11:29:27;;;;;;;24.65;11.27;;;8.90;99.90;;;;;;10394212;28;20044;-93
2021/11/06 11:34:30;;;;;;;27.90;10.27;;;9.00;99.90;;;;;;10395665;28;20033;-94
2021/11/06 11:39:38;;;;;;;27.15;10.85;;;9.50;99.90;;;;;;10364038;28;20081;-94
2021/11/06 11:45:20;;;;;;;21.88;9.38;;;9.20;99.90;;;;;;10346999;28;20053;-94
2021/11/06 11:50:34;;;;;;;21.70;9.52;;;9.40;99.90;;;;;;10357259;28;20207;-94
2021/11/06 11:55:44;;;;;;;24.38;10.85;;;9.40;99.90;;;;;;10378784;28;20038;-92
2021/11/06 12:00:53;;;;;;;22.38;11.43;;;9.60;99.90;;;;;;10393439;28;20566;-93
2021/11/06 12:05:55;;;;;;;20.00;10.48;;;9.50;99.90;;;;;;10398740;28;20187;-93
2021/11/06 12:11:10;;;;;;;21.58;10.25;;;9.30;99.90;;;;;;10351869;28;20049;-93
2021/11/06 12:16:14;;;;;;;26.67;12.18;;;9.50;99.90;;;;;;10327727;28;20056;-93
2021/11/06 12:21:20;;;;;;;24.20;10.82;;;9.20;99.90;;;;;;10356959;28;20054;-93
2021/11/06 12:26:31;;;;;;;22.08;10.30;;;9.40;99.90;;;;;;10378879;28;20073;-93
2021/11/06 12:31:37;;;;;;;18.13;9.20;;;9.40;99.90;;;;;;10380436;28;20056;-92
2021/11/06 12:36:42;;;;;;;19.00;9.20;;;9.20;99.90;;;;;;10398307;28;20053;-93
2021/11/06 12:41:44;;;;;;;18.10;9.23;;;9.30;99.90;;;;;;10380311;28;20097;-93
2021/11/06 12:47:07;;;;;;;19.77;9.43;;;9.30;99.90;;;;;;10378008;28;20037;-92
2021/11/06 12:52:09;;;;;;;17.25;8.80;;;9.50;99.90;;;;;;10415388;28;20097;-93
2021/11/06 12:57:11;;;;;;;17.90;8.95;;;9.50;99.90;;;;;;10408507;28;20064;-92
2021/11/06 13:02:13;;;;;;;17.40;8.80;;;9.50;99.90;;;;;;10401337;28;20041;-93
2021/11/06 13:13:37;;;;;;;18.60;9.32;;;9.50;99.90;;;;;;10433102;28;20103;-93
2021/11/06 13:18:44;;;;;;;20.85;10.38;;;9.20;99.90;;;;;;10374206;28;20128;-93
2021/11/06 13:23:54;;;;;;;19.70;9.37;;;9.50;99.90;;;;;;10419275;28;20049;-93
2021/11/06 13:28:56;;;;;;;19.33;9.82;;;9.40;99.90;;;;;;10398357;28;20075;-93
2021/11/06 13:33:59;;;;;;;19.80;9.10;;;9.30;99.90;;;;;;10401396;28;20045;-92
2021/11/06 13:39:02;;;;;;;17.52;8.45;;;9.30;99.90;;;;;;10434722;28;20061;-93
2021/11/06 13:44:11;;;;;;;19.35;9.48;;;9.20;99.90;;;;;;10420528;28;20060;-91
2021/11/06 13:49:19;;;;;;;20.10;10.35;;;9.10;99.90;;;;;;10421801;28;20088;-93
2021/11/06 13:54:26;;;;;;;20.80;10.05;;;9.40;99.90;;;;;;10412772;28;20054;-91
2021/11/06 13:59:38;;;;;;;22.35;8.52;;;9.40;99.90;;;;;;10360923;28;20057;-92
2021/11/06 14:04:44;;;;;;;22.98;10.52;;;9.50;99.90;;;;;;10422511;28;20084;-91
2021/11/06 14:09:52;;;;;;;17.15;8.93;;;9.30;99.90;;;;;;10402794;28;20055;-91
2021/11/06 14:14:54;;;;;;;20.15;8.10;;;9.20;99.90;;;;;;10429622;28;20041;-89
2021/11/06 14:20:00;;;;;;;23.75;10.55;;;9.20;99.90;;;;;;10394880;28;20056;-90
2021/11/06 14:25:04;;;;;;;23.92;9.80;;;9.10;99.90;;;;;;10401668;28;20053;-90
2021/11/06 14:30:12;;;;;;;20.73;9.40;;;8.90;99.90;;;;;;10409760;28;20057;-90
2021/11/06 14:35:14;;;;;;;25.38;10.18;;;8.80;99.90;;;;;;10427024;28;20049;-90
2021/11/06 14:40:16;;;;;;;26.33;10.55;;;8.60;99.90;;;;;;10402761;28;20069;-90
2021/11/06 14:45:23;;;;;;;26.65;11.30;;;8.60;99.90;;;;;;10397595;28;20061;-90
2021/11/06 14:50:30;;;;;;;27.73;10.35;;;8.50;99.90;;;;;;10420098;28;20060;-90
2021/11/06 14:55:32;;;;;;;27.30;11.77;;;8.40;99.90;;;;;;10429569;28;20055;-90
2021/11/06 15:00:40;;;;;;;29.73;11.68;;;8.30;99.90;;;;;;10391852;28;20520;-90
2021/11/06 15:05:46;;;;;;;34.60;12.88;;;8.20;99.90;;;;;;10407429;28;20088;-90
2021/11/06 15:10:51;;;;;;;32.17;13.35;;;8.20;99.90;;;;;;10392159;28;20053;-90
2021/11/06 15:15:54;;;;;;;35.13;13.80;;;8.10;99.90;;;;;;10398147;28;20053;-89
2021/11/06 15:20:56;;;;;;;42.67;15.35;;;8.00;99.90;;;;;;10397525;28;20500;-91
2021/11/06 15:26:00;;;;;;;39.80;13.80;;;8.00;99.90;;;;;;10364141;28;20140;-88
2021/11/06 15:31:02;;;;;;;47.45;16.20;;;8.00;99.90;;;;;;10379525;28;20088;-88
2021/11/06 15:36:04;;;;;;;41.88;15.18;;;7.90;99.90;;;;;;10393095;28;20049;-90
2021/11/06 15:41:06;;;;;;;41.55;15.32;;;7.80;99.90;;;;;;10413464;28;22619;-90
2021/11/06 15:46:08;;;;;;;44.90;17.02;;;7.70;99.90;;;;;;10398286;28;20060;-90
2021/11/06 15:56:49;;;;;;;42.42;16.20;;;7.50;99.90;;;;;;10309101;28;20440;-90
2021/11/06 16:01:56;;;;;;;45.13;16.23;;;7.40;99.90;;;;;;10406348;28;20053;-90
2021/11/06 16:06:58;;;;;;;47.13;17.70;;;7.30;99.90;;;;;;10434294;28;20053;-90
2021/11/06 16:12:01;;;;;;;52.35;18.02;;;7.30;99.90;;;;;;10407921;28;20059;-88
2021/11/06 16:17:08;;;;;;;47.03;17.80;;;7.20;99.90;;;;;;10420006;28;20095;-89
2021/11/06 16:22:10;;;;;;;48.73;16.37;;;7.20;99.90;;;;;;10428579;28;20057;-88
2021/11/06 16:27:15;;;;;;;50.00;17.15;;;7.20;99.90;;;;;;10418673;28;20056;-88
2021/11/06 16:32:16;;;;;;;44.50;18.42;;;7.30;99.90;;;;;;10375131;28;20045;-87
2021/11/06 16:37:18;;;;;;;51.03;19.35;;;7.30;99.90;;;;;;10420687;28;20500;-87
2021/11/06 16:42:21;;;;;;;60.80;20.70;;;7.30;99.90;;;;;;10419107;28;20101;-88
2021/11/06 16:47:24;;;;;;;62.75;20.20;;;7.40;99.90;;;;;;10398797;28;20053;-88
2021/11/06 16:52:26;;;;;;;50.65;19.73;;;7.40;99.90;;;;;;10432858;28;20063;-88
2021/11/06 16:57:28;;;;;;;60.25;21.35;;;7.40;99.90;;;;;;10420575;28;20076;-88
2021/11/06 17:02:29;;;;;;;56.03;20.10;;;7.40;99.90;;;;;;10423560;28;20053;-89
2021/11/06 17:07:34;;;;;;;60.25;20.80;;;7.40;99.90;;;;;;10416102;28;20052;-88
2021/11/06 17:12:36;;;;;;;55.58;23.08;;;7.40;99.90;;;;;;10358720;28;20041;-87
2021/11/06 17:17:40;;;;;;;56.20;20.42;;;7.40;99.90;;;;;;10422368;28;20073;-88
2021/11/06 17:22:47;;;;;;;51.30;19.73;;;7.40;99.90;;;;;;10382783;28;20054;-89
2021/11/06 17:27:54;;;;;;;55.60;20.02;;;7.40;99.90;;;;;;10400163;28;20041;-88
2021/11/06 17:32:57;;;;;;;51.55;19.02;;;7.40;99.90;;;;;;10418191;28;20059;-88
2021/11/06 17:37:59;;;;;;;50.03;19.02;;;7.50;99.90;;;;;;10411825;28;20048;-88
2021/11/06 17:43:02;;;;;;;50.53;18.60;;;7.40;99.90;;;;;;10420817;28;20057;-88
2021/11/06 17:48:11;;;;;;;45.90;17.88;;;7.40;99.90;;;;;;10401636;28;20059;-88
2021/11/06 17:58:22;;;;;;;47.28;19.05;;;7.30;99.90;;;;;;10408213;28;20060;-89
2021/11/06 18:03:26;;;;;;;43.08;16.30;;;7.20;99.90;;;;;;10413777;28;20061;-89
2021/11/06 18:08:28;;;;;;;43.85;15.70;;;7.20;99.90;;;;;;10418541;28;20056;-89
2021/11/06 18:13:30;;;;;;;43.05;17.10;;;7.00;99.90;;;;;;10419774;28;20056;-89
2021/11/06 18:18:34;;;;;;;42.92;16.70;;;7.00;99.90;;;;;;10415436;28;20064;-89
2021/11/06 18:23:36;;;;;;;48.92;16.08;;;7.00;99.90;;;;;;10391659;28;20065;-89
2021/11/06 18:28:38;;;;;;;43.30;16.20;;;7.00;99.90;;;;;;10420517;28;20114;-89
2021/11/06 18:33:40;;;;;;;42.80;17.88;;;7.00;99.90;;;;;;10422989;28;20067;-89
2021/11/06 18:38:43;;;;;;;43.78;16.83;;;7.00;99.90;;;;;;10416573;28;20076;-89
2021/11/06 18:43:47;;;;;;;35.45;15.07;;;7.00;99.90;;;;;;10415713;28;20048;-89
2021/11/06 18:48:52;;;;;;;37.67;14.23;;;7.00;99.90;;;;;;10427357;28;20055;-89
2021/11/06 18:53:56;;;;;;;35.75;13.93;;;7.10;99.90;;;;;;10402240;28;20053;-89
2021/11/06 18:58:58;;;;;;;36.35;13.18;;;7.10;99.90;;;;;;10410865;28;20136;-89
2021/11/06 19:04:00;;;;;;;37.45;15.55;;;7.00;99.90;;;;;;10416565;28;20059;-89
2021/11/06 19:09:04;;;;;;;34.30;13.68;;;7.00;99.90;;;;;;10409856;28;20057;-89
2021/11/06 19:14:07;;;;;;;38.50;14.13;;;6.90;99.90;;;;;;10442822;28;20072;-89
2021/11/06 19:19:09;;;;;;;32.30;12.75;;;6.80;99.90;;;;;;10413970;28;20053;-88
2021/11/06 19:24:13;;;;;;;35.22;13.70;;;6.80;99.90;;;;;;10414168;28;20049;-88
2021/11/06 19:29:15;;;;;;;32.40;13.32;;;6.70;99.90;;;;;;10434823;28;20101;-88
2021/11/06 19:34:17;;;;;;;34.22;12.45;;;6.60;99.90;;;;;;10433082;28;20053;-88
2021/11/06 19:39:20;;;;;;;39.10;12.88;;;6.60;99.90;;;;;;10433579;28;20064;-89
2021/11/06 19:44:23;;;;;;;36.70;11.82;;;6.60;99.90;;;;;;10423069;28;20091;-88
2021/11/06 19:49:34;;;;;;;34.33;13.10;;;6.50;99.90;;;;;;10447874;28;20108;-88
2021/11/06 19:54:37;;;;;;;38.65;13.07;;;6.50;99.90;;;;;;10415562;28;20496;-89
2021/11/06 19:59:39;;;;;;;30.40;12.07;;;6.50;99.90;;;;;;10423019;28;20049;-89
2021/11/06 20:04:41;;;;;;;33.35;11.98;;;6.50;99.90;;;;;;10430048;28;20049;-89
2021/11/06 20:09:43;;;;;;;35.85;11.18;;;6.50;99.90;;;;;;10424065;28;20060;-89
2021/11/06 20:14:45;;;;;;;40.78;15.40;;;6.60;99.90;;;;;;10441111;28;20049;-89
2021/11/06 20:19:47;;;;;;;35.17;11.98;;;6.60;99.90;;;;;;10439689;28;20045;-89
2021/11/06 20:24:49;;;;;;;36.28;12.23;;;6.50;99.90;;;;;;10415420;28;20080;-88
2021/11/06 20:29:53;;;;;;;33.88;11.18;;;6.50;99.90;;;;;;10421987;28;20049;-89
2021/11/06 20:34:55;;;;;;;35.75;12.07;;;6.50;99.90;;;;;;10412793;28;20049;-89
2021/11/06 20:39:57;;;;;;;40.92;12.18;;;6.40;99.90;;;;;;10398509;28;20052;-89
2021/11/06 20:45:00;;;;;;;41.58;12.00;;;6.40;99.90;;;;;;10401694;28;20052;-89
2021/11/06 20:50:05;;;;;;;31.58;11.25;;;6.30;99.90;;;;;;10413157;28;20056;-87
2021/11/06 20:55:07;;;;;;;34.40;11.50;;;6.40;99.90;;;;;;10405772;28;20352;-87
2021/11/06 21:00:13;;;;;;;44.50;15.38;;;6.30;99.90;;;;;;10406010;28;20111;-87
2021/11/06 21:05:16;;;;;;;39.83;13.30;;;6.30;99.90;;;;;;10423810;28;20122;-87
2021/11/06 21:10:43;;;;;;;42.35;13.70;;;6.40;99.90;;;;;;10405104;28;20057;-87
2021/11/06 21:20:42;;;;;;;44.30;14.70;;;6.30;99.90;;;;;;10435429;28;20789;-87
2021/11/06 21:25:45;;;;;;;41.70;14.45;;;6.30;99.90;;;;;;10404143;28;20063;-87
2021/11/06 21:30:47;;;;;;;35.75;14.73;;;6.30;99.90;;;;;;10420976;28;20037;-87
2021/11/06 21:35:49;;;;;;;38.55;13.23;;;6.30;99.90;;;;;;10427498;28;20060;-87
2021/11/06 21:40:52;;;;;;;36.03;12.05;;;6.30;99.90;;;;;;10407969;28;20057;-89
2021/11/06 21:45:55;;;;;;;30.80;11.70;;;6.30;99.90;;;;;;10415435;28;20056;-89
2021/11/06 21:50:58;;;;;;;32.78;11.75;;;6.30;99.90;;;;;;10418333;28;20061;-89
2021/11/06 21:56:00;;;;;;;25.42;9.43;;;6.30;99.90;;;;;;10401429;28;20492;-89
2021/11/06 22:01:02;;;;;;;27.92;9.98;;;6.30;99.90;;;;;;10424054;28;20164;-89
2021/11/06 22:06:05;;;;;;;26.05;11.23;;;6.30;99.90;;;;;;10405787;28;20056;-87
2021/11/06 22:11:17;;;;;;;24.75;10.25;;;6.30;99.90;;;;;;10405021;28;20385;-88
2021/11/06 22:16:19;;;;;;;26.77;10.57;;;6.20;99.90;;;;;;10432004;28;20057;-88
2021/11/06 22:21:24;;;;;;;30.65;11.05;;;6.30;99.90;;;;;;10401785;28;20056;-88
2021/11/06 22:26:28;;;;;;;27.27;9.93;;;6.20;99.90;;;;;;10419992;28;20049;-88
2021/11/06 22:31:30;;;;;;;26.00;9.57;;;6.20;99.90;;;;;;10403362;28;20556;-88
2021/11/06 22:36:33;;;;;;;25.63;11.18;;;6.20;99.90;;;;;;10407275;28;20108;-89
2021/11/06 22:41:37;;;;;;;28.77;11.32;;;6.10;99.90;;;;;;10402864;28;20060;-89
2021/11/06 22:46:39;;;;;;;23.75;10.13;;;6.10;99.90;;;;;;10408759;28;20060;-89
2021/11/06 22:51:41;;;;;;;29.20;10.57;;;6.10;99.90;;;;;;10423329;28;20052;-90
2021/11/06 22:56:45;;;;;;;27.80;10.35;;;6.10;99.90;;;;;;10422035;28;20136;-89
2021/11/06 23:01:47;;;;;;;24.63;10.52;;;6.00;99.90;;;;;;10413584;28;20050;-89
2021/11/06 23:06:51;;;;;;;28.50;10.50;;;6.10;99.90;;;;;;10414757;28;20128;-89
2021/11/06 23:11:54;;;;;;;24.25;10.75;;;6.10;99.90;;;;;;10416007;28;20053;-89
2021/11/06 23:16:57;;;;;;;24.52;10.13;;;6.10;99.90;;;;;;10406413;28;20056;-89
2021/11/06 23:21:59;;;;;;;23.98;11.18;;;6.10;99.90;;;;;;10433538;28;20067;-87
2021/11/06 23:27:03;;;;;;;25.55;10.38;;;6.10;99.90;;;;;;10427894;28;20049;-89
2021/11/06 23:32:06;;;;;;;22.90;9.00;;;6.10;99.90;;;;;;10435014;28;20055;-89
2021/11/06 23:37:08;;;;;;;24.65;10.88;;;6.10;99.90;;;;;;10458128;28;20144;-89
2021/11/06 23:42:12;;;;;;;23.60;9.38;;;6.10;99.90;;;;;;10462613;28;20044;-89
2021/11/06 23:47:14;;;;;;;27.15;10.48;;;6.00;99.90;;;;;;10451975;28;20104;-90
2021/11/06 23:52:25;;;;;;;24.60;10.55;;;6.00;99.90;;;;;;10470690;28;20048;-88
2021/11/06 23:57:36;;;;;;;25.33;10.45;;;5.90;99.90;;;;;;10427750;28;20045;-88
